createdAt,value
2023-04-02T00:01:19.352Z,13.30
2023-04-02T00:04:09.037Z,13.30
2023-04-02T00:06:55.992Z,13.30
2023-04-02T00:09:41.917Z,13.30
2023-04-02T00:12:27.563Z,13.30
2023-04-02T00:15:13.237Z,13.30
2023-04-02T00:17:59.888Z,13.40
2023-04-02T00:20:51.491Z,13.30
2023-04-02T00:23:41.266Z,13.30
2023-04-02T00:26:30.869Z,13.30
2023-04-02T00:29:17.076Z,13.30
2023-04-02T00:32:02.962Z,13.30
2023-04-02T00:34:48.755Z,13.20
2023-04-02T00:37:39.086Z,13.20
2023-04-02T00:40:26.586Z,13.20
2023-04-02T00:43:16.779Z,13.20
2023-04-02T00:46:11.149Z,13.10
2023-04-02T00:49:02.855Z,13.10
2023-04-02T00:51:56.753Z,13.10
2023-04-02T00:54:45.777Z,13.00
2023-04-02T00:57:33.516Z,13.00
2023-04-02T01:00:19.481Z,12.90
2023-04-02T01:03:17.469Z,12.90
2023-04-02T01:06:10.970Z,12.80
2023-04-02T01:08:59.460Z,12.70
2023-04-02T01:11:48.367Z,12.60
2023-04-02T01:14:41.153Z,12.60
2023-04-02T01:17:36.680Z,12.50
2023-04-02T01:20:22.636Z,12.50
2023-04-02T01:23:43.987Z,12.40
2023-04-02T01:26:32.226Z,12.40
2023-04-02T01:29:23.553Z,12.50
2023-04-02T01:32:14.152Z,12.50
2023-04-02T01:34:59.597Z,12.50
2023-04-02T01:37:59.916Z,12.50
2023-04-02T01:41:18.454Z,12.40
2023-04-02T01:44:08.537Z,12.40
2023-04-02T01:46:54.343Z,12.40
2023-04-02T01:49:41.586Z,12.30
2023-04-02T01:52:35.908Z,12.40
2023-04-02T01:55:29.286Z,12.40
2023-04-02T01:58:18.239Z,12.50
2023-04-02T02:01:09.441Z,12.50
2023-04-02T02:03:57.639Z,12.60
2023-04-02T02:06:43.597Z,12.60
2023-04-02T02:09:36.113Z,12.60
2023-04-02T02:12:22.845Z,12.60
2023-04-02T02:15:14.474Z,12.70
2023-04-02T02:18:03.047Z,12.70
2023-04-02T02:20:49.128Z,12.70
2023-04-02T02:23:34.564Z,12.70
2023-04-02T02:26:21.870Z,12.80
2023-04-02T02:29:11.231Z,12.80
2023-04-02T02:31:58.225Z,12.70
2023-04-02T02:34:48.239Z,12.70
2023-04-02T02:37:36.308Z,12.60
2023-04-02T02:40:25.600Z,12.60
2023-04-02T02:43:13.374Z,12.60
2023-04-02T02:45:59.730Z,12.50
2023-04-02T02:48:46.708Z,12.50
2023-04-02T02:51:44.029Z,12.40
2023-04-02T02:54:36.583Z,12.40
2023-04-02T02:57:24.715Z,12.40
2023-04-02T03:00:16.047Z,12.40
2023-04-02T03:03:04.560Z,12.40
2023-04-02T03:06:05.494Z,12.40
2023-04-02T03:08:57.932Z,12.40
2023-04-02T03:12:00.179Z,12.20
2023-04-02T03:14:53.116Z,12.20
2023-04-02T03:17:46.100Z,12.00
2023-04-02T03:20:31.990Z,12.10
2023-04-02T03:23:21.932Z,12.10
2023-04-02T03:26:25.875Z,12.10
2023-04-02T03:29:15.616Z,12.20
2023-04-02T03:32:22.186Z,12.20
2023-04-02T03:35:17.178Z,12.20
2023-04-02T03:38:11.714Z,12.30
2023-04-02T03:41:11.782Z,12.40
2023-04-02T03:43:59.242Z,12.40
2023-04-02T03:46:47.317Z,12.30
2023-04-02T03:49:49.876Z,12.20
2023-04-02T03:52:37.033Z,12.20
2023-04-02T03:55:28.888Z,12.20
2023-04-02T03:58:33.710Z,12.30
2023-04-02T04:01:31.769Z,12.30
2023-04-02T04:04:19.377Z,12.30
2023-04-02T04:07:08.578Z,12.30
2023-04-02T04:09:54.656Z,12.30
2023-04-02T04:12:42.373Z,12.30
2023-04-02T04:15:37.988Z,12.20
2023-04-02T04:18:24.387Z,12.20
2023-04-02T04:21:15.896Z,12.20
2023-04-02T04:24:04.915Z,12.20
2023-04-02T04:26:53.543Z,12.10
2023-04-02T04:29:45.662Z,12.10
2023-04-02T04:32:39.258Z,12.10
2023-04-02T04:35:38.985Z,12.10
2023-04-02T04:38:33.057Z,12.00
2023-04-02T04:41:24.445Z,12.00
2023-04-02T04:44:25.502Z,11.90
2023-04-02T04:47:17.983Z,11.90
2023-04-02T04:50:08.803Z,11.90
2023-04-02T04:52:57.541Z,11.90
2023-04-02T04:55:44.487Z,11.70
2023-04-02T04:58:40.878Z,11.70
2023-04-02T05:01:38.803Z,11.70
2023-04-02T05:04:36.296Z,11.80
2023-04-02T05:07:27.696Z,11.80
2023-04-02T05:10:19.633Z,11.80
2023-04-02T05:13:12.078Z,11.90
2023-04-02T05:16:04.809Z,11.80
2023-04-02T05:18:56.656Z,11.80
2023-04-02T05:21:44.819Z,11.80
2023-04-02T05:24:34.852Z,11.90
2023-04-02T05:27:32.477Z,11.80
2023-04-02T05:30:24.114Z,11.90
2023-04-02T05:33:18.814Z,11.90
2023-04-02T05:36:04.837Z,11.80
2023-04-02T05:38:56.427Z,11.80
2023-04-02T05:41:57.915Z,11.80
2023-04-02T05:45:03.532Z,11.90
2023-04-02T05:47:52.191Z,12.00
2023-04-02T05:50:44.688Z,12.00
2023-04-02T05:53:37.884Z,12.00
2023-04-02T05:56:32.101Z,12.00
2023-04-02T05:59:29.448Z,12.00
2023-04-02T06:02:19.502Z,12.10
2023-04-02T06:05:16.923Z,12.10
2023-04-02T06:08:06.470Z,12.20
2023-04-02T06:10:54.676Z,12.20
2023-04-02T06:13:43.329Z,12.30
2023-04-02T06:16:33.424Z,12.30
2023-04-02T06:19:22.499Z,12.30
2023-04-02T06:22:20.723Z,12.40
2023-04-02T06:25:18.153Z,12.40
2023-04-02T06:28:06.228Z,12.30
2023-04-02T06:30:54.319Z,12.40
2023-04-02T06:33:40.515Z,12.50
2023-04-02T06:36:28.401Z,12.50
2023-04-02T06:39:23.121Z,12.50
2023-04-02T06:42:14.227Z,12.60
2023-04-02T06:45:28.521Z,12.60
2023-04-02T06:48:33.276Z,12.60
2023-04-02T06:51:22.739Z,12.70
2023-04-02T06:54:13.403Z,12.70
2023-04-02T06:56:59.615Z,12.70
2023-04-02T06:59:49.817Z,12.60
2023-04-02T07:02:41.951Z,12.60
2023-04-02T07:05:29.587Z,12.60
2023-04-02T07:08:15.758Z,12.50
2023-04-02T07:11:01.443Z,12.50
2023-04-02T07:13:48.784Z,12.40
2023-04-02T07:16:36.651Z,12.40
2023-04-02T07:19:23.025Z,12.20
2023-04-02T07:22:13.247Z,12.20
2023-04-02T07:25:01.927Z,12.10
2023-04-02T07:27:47.823Z,12.10
2023-04-02T07:30:33.290Z,12.10
2023-04-02T07:33:21.111Z,12.10
2023-04-02T07:36:06.872Z,12.20
2023-04-02T07:38:54.490Z,12.20
2023-04-02T07:41:53.159Z,12.20
2023-04-02T07:44:38.767Z,12.20
2023-04-02T07:47:24.645Z,12.30
2023-04-02T07:50:10.665Z,12.30
2023-04-02T07:52:56.437Z,12.30
2023-04-02T07:55:41.864Z,12.30
2023-04-02T07:58:27.997Z,12.30
2023-04-02T08:01:16.650Z,12.40
2023-04-02T08:04:03.941Z,12.50
2023-04-02T08:06:50.032Z,12.50
2023-04-02T08:09:35.510Z,12.60
2023-04-02T08:12:21.191Z,12.70
2023-04-02T08:15:07.419Z,12.70
2023-04-02T08:17:53.664Z,12.80
2023-04-02T08:20:39.576Z,12.80
2023-04-02T08:23:27.219Z,12.80
2023-04-02T08:26:16.882Z,12.90
2023-04-02T08:29:02.888Z,13.00
2023-04-02T08:31:48.888Z,13.00
2023-04-02T08:34:34.367Z,13.00
2023-04-02T08:37:20.071Z,13.00
2023-04-02T08:40:07.570Z,13.00
2023-04-02T08:43:14.502Z,13.10
2023-04-02T08:46:04.520Z,13.20
2023-04-02T08:48:55.494Z,13.20
2023-04-02T08:51:41.533Z,13.30
2023-04-02T08:54:29.233Z,13.30
2023-04-02T08:57:36.686Z,13.40
2023-04-02T09:00:24.332Z,13.40
2023-04-02T09:03:29.895Z,13.40
2023-04-02T09:06:17.576Z,13.50
2023-04-02T09:09:03.386Z,13.60
2023-04-02T09:12:01.418Z,13.60
2023-04-02T09:14:53.209Z,13.50
2023-04-02T09:17:50.584Z,13.60
2023-04-02T09:20:39.284Z,13.70
2023-04-02T09:23:26.159Z,13.50
2023-04-02T09:26:27.269Z,13.60
2023-04-02T09:29:12.845Z,13.60
2023-04-02T09:32:06.682Z,13.60
2023-04-02T09:35:15.074Z,13.60
2023-04-02T09:38:09.880Z,13.80
2023-04-02T09:40:55.053Z,13.80
2023-04-02T09:43:40.807Z,13.80
2023-04-02T09:46:27.148Z,13.70
2023-04-02T09:49:15.921Z,13.60
2023-04-02T09:52:32.738Z,13.60
2023-04-02T09:55:18.729Z,13.60
2023-04-02T09:58:15.186Z,13.70
2023-04-02T10:01:00.794Z,13.90
2023-04-02T10:03:46.874Z,13.90
2023-04-02T10:06:33.774Z,14.00
2023-04-02T10:09:30.173Z,14.00
2023-04-02T10:12:15.840Z,14.10
2023-04-02T10:15:04.014Z,14.20
2023-04-02T10:17:57.421Z,14.20
2023-04-02T10:20:50.863Z,14.30
2023-04-02T10:23:37.326Z,14.30
2023-04-02T10:26:23.144Z,14.40
2023-04-02T10:29:14.803Z,14.30
2023-04-02T10:32:00.179Z,14.50
2023-04-02T10:34:46.643Z,14.60
2023-04-02T10:37:44.642Z,14.80
2023-04-02T10:40:39.946Z,15.00
2023-04-02T10:43:26.802Z,15.10
2023-04-02T10:46:12.601Z,15.30
2023-04-02T10:49:06.147Z,15.40
2023-04-02T10:51:51.759Z,15.50
2023-04-02T10:54:41.386Z,15.60
2023-04-02T10:57:26.926Z,15.80
2023-04-02T11:00:18.917Z,16.00
2023-04-02T11:03:06.078Z,16.20
2023-04-02T11:05:53.554Z,16.30
2023-04-02T11:08:43.442Z,16.30
2023-04-02T11:11:36.750Z,16.50
2023-04-02T11:14:27.418Z,16.60
2023-04-02T11:17:14.148Z,16.80
2023-04-02T11:20:19.865Z,16.80
2023-04-02T11:23:17.756Z,16.80
2023-04-02T11:26:22.665Z,16.60
2023-04-02T11:29:22.789Z,16.30
2023-04-02T11:32:20.786Z,16.30
2023-04-02T11:35:26.110Z,16.10
2023-04-02T11:38:11.716Z,16.30
2023-04-02T11:40:58.093Z,16.50
2023-04-02T11:43:47.857Z,16.50
2023-04-02T11:46:38.521Z,16.60
2023-04-02T11:49:39.896Z,16.30
2023-04-02T11:52:31.106Z,16.50
2023-04-02T11:55:30.675Z,16.40
2023-04-02T11:58:25.999Z,16.50
2023-04-02T12:01:21.019Z,16.70
2023-04-02T12:04:06.462Z,17.00
2023-04-02T12:07:06.383Z,17.20
2023-04-02T12:09:56.374Z,17.20
2023-04-02T12:12:43.112Z,17.20
2023-04-02T12:15:35.032Z,17.00
2023-04-02T12:18:26.918Z,17.00
2023-04-02T12:21:19.793Z,17.00
2023-04-02T12:24:05.790Z,17.10
2023-04-02T12:27:08.698Z,17.20
2023-04-02T12:29:55.584Z,17.10
2023-04-02T12:32:40.848Z,17.30
2023-04-02T12:35:27.003Z,17.70
2023-04-02T12:38:42.143Z,17.70
2023-04-02T12:41:30.380Z,17.60
2023-04-02T12:44:17.885Z,17.50
2023-04-02T12:47:04.249Z,17.50
2023-04-02T12:49:50.008Z,17.50
2023-04-02T12:52:35.843Z,17.60
2023-04-02T12:55:22.872Z,17.90
2023-04-02T12:58:23.803Z,17.90
2023-04-02T13:01:14.156Z,17.80
2023-04-02T13:04:13.725Z,17.70
2023-04-02T13:06:59.365Z,17.50
2023-04-02T13:09:49.398Z,17.30
2023-04-02T13:12:36.509Z,17.30
2023-04-02T13:15:24.430Z,17.30
2023-04-02T13:18:13.964Z,17.50
2023-04-02T13:20:59.590Z,17.60
2023-04-02T13:23:46.195Z,17.60
2023-04-02T13:26:31.814Z,17.70
2023-04-02T13:29:19.596Z,17.70
2023-04-02T13:32:12.428Z,17.80
2023-04-02T13:34:58.303Z,17.80
2023-04-02T13:37:44.161Z,17.80
2023-04-02T13:40:32.408Z,17.60
2023-04-02T13:43:19.564Z,17.40
2023-04-02T13:46:08.335Z,17.50
2023-04-02T13:48:54.749Z,17.50
2023-04-02T13:51:48.058Z,17.70
2023-04-02T13:54:37.451Z,17.80
2023-04-02T13:57:23.123Z,17.70
2023-04-02T14:00:11.139Z,17.60
2023-04-02T14:03:03.080Z,17.70
2023-04-02T14:06:08.471Z,17.70
2023-04-02T14:09:00.804Z,17.80
2023-04-02T14:12:07.742Z,17.80
2023-04-02T14:15:02.350Z,17.80
2023-04-02T14:17:48.422Z,17.90
2023-04-02T14:20:40.110Z,17.80
2023-04-02T14:23:31.367Z,17.70
2023-04-02T14:26:22.618Z,17.60
2023-04-02T14:29:16.346Z,17.70
2023-04-02T14:32:05.113Z,17.80
2023-04-02T14:34:57.231Z,17.90
2023-04-02T14:37:48.759Z,17.90
2023-04-02T14:40:34.529Z,17.90
2023-04-02T14:43:24.767Z,17.80
2023-04-02T14:46:10.920Z,17.90
2023-04-02T14:49:05.695Z,18.00
2023-04-02T14:51:53.847Z,18.00
2023-04-02T14:54:45.283Z,18.10
2023-04-02T14:57:37.191Z,18.00
2023-04-02T15:00:26.215Z,17.90
2023-04-02T15:03:18.121Z,18.00
2023-04-02T15:06:10.316Z,18.20
2023-04-02T15:09:19.142Z,18.40
2023-04-02T15:12:10.879Z,18.30
2023-04-02T15:15:15.736Z,18.30
2023-04-02T15:18:01.628Z,18.40
2023-04-02T15:20:47.407Z,18.50
2023-04-02T15:23:41.679Z,18.40
2023-04-02T15:26:33.551Z,18.50
2023-04-02T15:29:40.754Z,18.60
2023-04-02T15:32:35.953Z,18.50
2023-04-02T15:35:41.796Z,18.50
2023-04-02T15:38:50.481Z,18.50
2023-04-02T15:41:40.748Z,18.40
2023-04-02T15:44:30.015Z,18.20
2023-04-02T15:47:21.467Z,18.10
2023-04-02T15:50:19.672Z,18.00
2023-04-02T15:53:23.348Z,17.90
2023-04-02T15:56:09.115Z,17.90
2023-04-02T15:59:15.240Z,17.80
2023-04-02T16:02:18.248Z,17.70
2023-04-02T16:05:16.068Z,17.60
2023-04-02T16:08:07.141Z,17.60
2023-04-02T16:10:53.087Z,17.50
2023-04-02T16:13:39.689Z,17.40
2023-04-02T16:16:25.233Z,17.40
2023-04-02T16:19:22.829Z,17.40
2023-04-02T16:22:53.334Z,17.40
2023-04-02T16:25:56.441Z,17.20
2023-04-02T16:28:41.692Z,17.10
2023-04-02T16:31:39.840Z,17.00
2023-04-02T16:34:39.916Z,17.00
2023-04-02T16:37:38.852Z,17.00
2023-04-02T16:40:41.470Z,16.80
2023-04-02T16:43:32.551Z,16.80
2023-04-02T16:46:28.354Z,16.80
2023-04-02T16:49:21.458Z,16.80
2023-04-02T16:52:26.353Z,16.70
2023-04-02T16:55:14.637Z,16.70
2023-04-02T16:58:20.825Z,16.70
2023-04-02T17:01:06.389Z,16.60
2023-04-02T17:04:08.923Z,16.60
2023-04-02T17:07:10.473Z,16.50
2023-04-02T17:10:02.828Z,16.40
2023-04-02T17:12:52.597Z,16.30
2023-04-02T17:15:41.358Z,16.20
2023-04-02T17:18:27.129Z,16.20
2023-04-02T17:21:18.859Z,16.20
2023-04-02T17:24:14.335Z,16.10
2023-04-02T17:27:04.118Z,16.10
2023-04-02T17:29:52.798Z,16.00
2023-04-02T17:32:38.448Z,16.00
2023-04-02T17:35:32.216Z,15.90
2023-04-02T17:38:21.223Z,15.80
2023-04-02T17:41:19.021Z,15.80
2023-04-02T17:44:31.279Z,15.70
2023-04-02T17:47:20.770Z,15.60
2023-04-02T17:50:19.146Z,15.50
2023-04-02T17:53:23.623Z,15.50
2023-04-02T17:56:17.038Z,15.40
2023-04-02T17:59:21.344Z,15.40
2023-04-02T18:02:25.767Z,15.30
2023-04-02T18:05:19.524Z,15.30
2023-04-02T18:08:05.270Z,15.20
2023-04-02T18:11:10.040Z,15.20
2023-04-02T18:13:59.841Z,15.10
2023-04-02T18:17:01.889Z,15.10
2023-04-02T18:19:54.078Z,14.90
2023-04-02T18:22:52.196Z,15.00
2023-04-02T18:25:42.813Z,14.90
2023-04-02T18:28:37.417Z,14.90
2023-04-02T18:31:24.391Z,14.80
2023-04-02T18:34:09.962Z,14.80
2023-04-02T18:37:05.117Z,14.70
2023-04-02T18:39:51.102Z,14.70
2023-04-02T18:42:55.754Z,14.60
2023-04-02T18:46:01.402Z,14.60
2023-04-02T18:48:50.495Z,14.60
2023-04-02T18:51:46.083Z,14.50
2023-04-02T18:54:41.079Z,14.50
2023-04-02T18:57:58.423Z,14.50
2023-04-02T19:03:48.824Z,14.30
2023-04-02T19:06:40.082Z,14.30
2023-04-02T19:09:32.618Z,14.20
2023-04-02T19:12:22.252Z,14.20
2023-04-02T19:15:15.389Z,14.10
2023-04-02T19:18:08.919Z,14.00
2023-04-02T19:20:58.520Z,14.00
2023-04-02T19:24:03.216Z,13.90
2023-04-02T19:27:08.980Z,13.90
2023-04-02T19:30:12.891Z,13.80
2023-04-02T19:33:31.250Z,13.80
2023-04-02T19:36:45.991Z,13.80
2023-04-02T19:39:31.424Z,13.70
2023-04-02T19:42:20.430Z,13.70
2023-04-02T19:45:15.728Z,13.70
2023-04-02T19:48:11.708Z,13.70
2023-04-02T19:50:57.294Z,13.70
2023-04-02T19:53:42.907Z,13.60
2023-04-02T19:56:28.644Z,13.70
2023-04-02T19:59:18.261Z,13.70
2023-04-02T20:02:07.199Z,13.70
2023-04-02T20:04:53.176Z,13.70
2023-04-02T20:07:39.042Z,13.70
2023-04-02T20:10:26.896Z,13.60
2023-04-02T20:13:12.508Z,13.60
2023-04-02T20:16:02.315Z,13.50
2023-04-02T20:18:48.705Z,13.40
2023-04-02T20:21:38.951Z,13.40
2023-04-02T20:24:24.793Z,13.20
2023-04-02T20:27:10.507Z,13.10
2023-04-02T20:29:56.114Z,13.00
2023-04-02T20:32:41.751Z,13.00
2023-04-02T20:35:27.502Z,13.00
2023-04-02T20:38:13.203Z,13.00
2023-04-02T20:40:58.830Z,13.00
2023-04-02T20:43:44.816Z,12.90
2023-04-02T20:46:30.530Z,12.90
2023-04-02T20:49:16.428Z,11.40
2023-04-02T20:52:02.317Z,12.90
2023-04-02T20:54:48.093Z,12.80
2023-04-02T20:57:33.870Z,12.80
2023-04-02T21:00:19.638Z,11.20
2023-04-02T21:03:05.235Z,12.80
2023-04-02T21:05:51.048Z,12.70
2023-04-02T21:08:37.086Z,12.70
2023-04-02T21:11:23.412Z,12.70
2023-04-02T21:14:09.282Z,12.70
2023-04-02T21:16:54.776Z,12.70
2023-04-02T21:19:42.203Z,12.60
2023-04-02T21:22:27.672Z,12.60
2023-04-02T21:25:13.452Z,12.50
2023-04-02T21:27:59.460Z,12.50
2023-04-02T21:30:45.280Z,12.50
2023-04-02T21:33:31.544Z,12.50
2023-04-02T21:36:18.553Z,12.50
2023-04-02T21:39:05.792Z,12.40
2023-04-02T21:41:53.300Z,12.50
2023-04-02T21:44:38.949Z,12.50
2023-04-02T21:47:24.941Z,12.50
2023-04-02T21:50:10.931Z,12.50
2023-04-02T21:52:56.343Z,12.50
2023-04-02T21:55:42.146Z,12.50
2023-04-02T21:58:28.022Z,12.50
2023-04-02T22:01:26.108Z,12.50
2023-04-02T22:04:20.110Z,12.50
2023-04-02T22:07:06.010Z,12.50
2023-04-02T22:09:51.748Z,12.50
2023-04-02T22:12:37.246Z,12.50
2023-04-02T22:15:22.952Z,12.50
2023-04-02T22:18:08.420Z,12.50
2023-04-02T22:20:55.072Z,12.50
2023-04-02T22:23:40.888Z,12.40
2023-04-02T22:26:27.433Z,12.40
2023-04-02T22:29:13.572Z,12.30
2023-04-02T22:31:58.965Z,12.30
2023-04-02T22:34:45.798Z,12.30
2023-04-02T22:37:33.949Z,12.20
2023-04-02T22:40:19.672Z,12.20
2023-04-02T22:43:05.779Z,12.20
2023-04-02T22:45:51.186Z,12.20
2023-04-02T22:48:39.711Z,12.20
2023-04-02T22:51:25.664Z,12.20
2023-04-02T22:54:11.291Z,12.20
2023-04-02T22:56:56.851Z,12.20
2023-04-02T22:59:42.559Z,12.20
2023-04-02T23:02:28.032Z,12.20
2023-04-02T23:05:13.686Z,12.20
2023-04-02T23:07:59.639Z,12.10
2023-04-02T23:10:45.152Z,12.20
2023-04-02T23:13:31.151Z,12.10
2023-04-02T23:16:17.672Z,12.10
2023-04-02T23:19:03.598Z,12.10
2023-04-02T23:21:49.299Z,12.00
2023-04-02T23:24:34.779Z,13.90
2023-04-02T23:27:21.224Z,11.90
2023-04-02T23:30:07.355Z,11.90
2023-04-02T23:32:53.166Z,11.90
2023-04-02T23:35:38.989Z,11.80
2023-04-02T23:38:25.162Z,11.80
2023-04-02T23:41:14.257Z,11.80
2023-04-02T23:44:00.203Z,11.80
2023-04-02T23:46:46.103Z,11.80
2023-04-02T23:49:31.653Z,11.80
2023-04-02T23:52:17.346Z,11.80
2023-04-02T23:55:03.183Z,11.80
2023-04-02T23:57:48.637Z,11.70
